createdAt,value
2022-11-27T00:01:24.592Z,6.68
2022-11-27T00:03:51.565Z,4.15
2022-11-27T00:06:21.114Z,4.53
2022-11-27T00:08:49.069Z,5.60
2022-11-27T00:11:19.199Z,5.95
2022-11-27T00:13:46.963Z,5.78
2022-11-27T00:16:14.830Z,5.60
2022-11-27T00:18:44.823Z,7.32
2022-11-27T00:21:19.356Z,5.32
2022-11-27T00:23:46.113Z,6.03
2022-11-27T00:26:13.365Z,5.35
2022-11-27T00:28:40.799Z,6.00
2022-11-27T00:31:15.638Z,6.85
2022-11-27T00:33:42.718Z,5.18
2022-11-27T00:36:11.018Z,5.88
2022-11-27T00:38:42.377Z,5.10
2022-11-27T00:41:17.726Z,5.10
2022-11-27T00:43:45.658Z,6.93
2022-11-27T00:46:25.368Z,5.10
2022-11-27T00:48:55.421Z,8.23
2022-11-27T00:51:24.192Z,4.50
2022-11-27T00:53:51.543Z,5.25
2022-11-27T00:56:21.377Z,5.82
2022-11-27T00:58:48.129Z,6.05
2022-11-27T01:01:23.529Z,8.50
2022-11-27T01:03:53.573Z,6.13
2022-11-27T01:06:20.905Z,6.95
2022-11-27T01:08:48.492Z,6.15
2022-11-27T01:11:18.610Z,6.40
2022-11-27T01:13:48.353Z,5.75
2022-11-27T01:16:19.387Z,6.20
2022-11-27T01:18:48.943Z,4.57
2022-11-27T01:21:19.553Z,7.07
2022-11-27T01:23:47.569Z,5.43
2022-11-27T01:26:20.388Z,5.20
2022-11-27T01:28:48.234Z,5.35
2022-11-27T01:31:17.921Z,5.15
2022-11-27T01:33:47.054Z,5.65
2022-11-27T01:36:15.940Z,4.63
2022-11-27T01:38:42.883Z,5.93
2022-11-27T01:41:15.461Z,4.75
2022-11-27T01:43:46.991Z,6.90
2022-11-27T01:46:22.809Z,6.00
2022-11-27T01:48:54.091Z,6.40
2022-11-27T01:51:22.280Z,7.00
2022-11-27T01:53:50.813Z,4.80
2022-11-27T01:56:20.115Z,5.28
2022-11-27T01:58:47.274Z,6.13
2022-11-27T02:01:14.407Z,5.20
2022-11-27T02:03:41.372Z,5.88
2022-11-27T02:06:13.372Z,7.20
2022-11-27T02:08:41.862Z,5.03
2022-11-27T02:11:36.689Z,5.47
2022-11-27T02:14:25.998Z,6.22
2022-11-27T02:17:28.805Z,5.22
2022-11-27T02:20:17.516Z,5.00
2022-11-27T02:23:06.230Z,6.75
2022-11-27T02:25:35.926Z,4.00
2022-11-27T02:28:18.541Z,5.18
2022-11-27T02:30:55.294Z,4.38
2022-11-27T02:33:23.645Z,7.10
2022-11-27T02:36:07.748Z,5.72
2022-11-27T02:39:16.885Z,4.32
2022-11-27T02:42:09.066Z,7.03
2022-11-27T02:44:41.925Z,5.60
2022-11-27T02:47:10.292Z,6.05
2022-11-27T02:49:39.953Z,8.00
2022-11-27T02:52:08.119Z,5.38
2022-11-27T02:54:36.018Z,7.70
2022-11-27T02:57:05.009Z,6.13
2022-11-27T02:59:34.389Z,4.95
2022-11-27T03:02:08.351Z,4.05
2022-11-27T03:04:44.244Z,6.28
2022-11-27T03:07:23.394Z,5.85
2022-11-27T03:09:54.099Z,5.53
2022-11-27T03:12:21.138Z,4.82
2022-11-27T03:14:48.959Z,7.70
2022-11-27T03:17:29.770Z,4.90
2022-11-27T03:20:18.035Z,6.35
2022-11-27T03:22:46.776Z,6.22
2022-11-27T03:25:13.791Z,5.05
2022-11-27T03:27:50.473Z,4.45
2022-11-27T03:30:17.641Z,5.55
2022-11-27T03:32:44.588Z,5.05
2022-11-27T03:35:15.297Z,5.40
2022-11-27T03:37:42.542Z,6.07
2022-11-27T03:40:10.597Z,6.80
2022-11-27T03:42:58.607Z,6.85
2022-11-27T03:45:58.280Z,4.82
2022-11-27T03:48:43.562Z,6.40
2022-11-27T03:51:27.962Z,4.72
2022-11-27T03:54:23.398Z,6.80
2022-11-27T03:57:10.929Z,7.22
2022-11-27T03:59:40.896Z,5.28
2022-11-27T04:02:14.319Z,5.75
2022-11-27T04:04:41.580Z,5.53
2022-11-27T04:07:17.249Z,4.75
2022-11-27T04:09:44.067Z,4.93
2022-11-27T04:12:10.859Z,5.25
2022-11-27T04:14:37.742Z,4.38
2022-11-27T04:17:04.774Z,5.53
2022-11-27T04:19:31.595Z,4.82
2022-11-27T04:21:58.797Z,4.53
2022-11-27T04:24:25.562Z,7.35
2022-11-27T04:26:52.346Z,4.85
2022-11-27T04:29:19.349Z,4.78
2022-11-27T04:31:46.160Z,6.70
2022-11-27T04:34:12.947Z,4.63
2022-11-27T04:36:39.857Z,3.97
2022-11-27T04:39:06.640Z,6.63
2022-11-27T04:41:33.392Z,6.45
2022-11-27T04:44:00.171Z,6.63
2022-11-27T04:46:27.657Z,6.60
2022-11-27T04:48:54.423Z,6.40
2022-11-27T04:51:21.167Z,5.63
2022-11-27T04:53:48.056Z,7.25
2022-11-27T04:56:15.105Z,5.63
2022-11-27T04:58:41.975Z,4.03
2022-11-27T05:01:09.395Z,5.15
2022-11-27T05:03:36.525Z,6.13
2022-11-27T05:06:03.473Z,4.88
2022-11-27T05:08:33.079Z,5.07
2022-11-27T05:11:28.207Z,4.95
2022-11-27T05:14:15.184Z,4.70
2022-11-27T05:16:46.927Z,5.22
2022-11-27T05:19:15.143Z,4.82
2022-11-27T05:21:42.427Z,4.47
2022-11-27T05:24:10.568Z,4.75
2022-11-27T05:26:38.937Z,5.93
2022-11-27T05:29:07.221Z,4.47
2022-11-27T05:31:34.372Z,7.00
2022-11-27T05:34:01.524Z,3.65
2022-11-27T05:36:29.407Z,8.18
2022-11-27T05:38:56.268Z,6.28
2022-11-27T05:41:23.652Z,4.40
2022-11-27T05:43:50.498Z,3.90
2022-11-27T05:46:24.660Z,4.65
2022-11-27T05:48:51.847Z,5.20
2022-11-27T05:51:18.985Z,5.60
2022-11-27T05:53:46.160Z,5.00
2022-11-27T05:56:16.301Z,5.53
2022-11-27T05:58:44.760Z,5.22
2022-11-27T06:01:14.514Z,6.20
2022-11-27T06:03:43.398Z,6.22
2022-11-27T06:06:17.577Z,4.50
2022-11-27T06:08:45.577Z,4.85
2022-11-27T06:11:15.523Z,4.07
2022-11-27T06:13:43.142Z,6.78
2022-11-27T06:16:18.930Z,6.57
2022-11-27T06:18:48.627Z,5.03
2022-11-27T06:21:15.778Z,4.03
2022-11-27T06:23:43.611Z,4.28
2022-11-27T06:26:17.194Z,5.32
2022-11-27T06:28:44.443Z,4.72
2022-11-27T06:31:17.748Z,3.47
2022-11-27T06:33:51.405Z,5.40
2022-11-27T06:36:18.752Z,4.18
2022-11-27T06:38:49.126Z,5.55
2022-11-27T06:41:21.669Z,6.00
2022-11-27T06:43:48.592Z,5.40
2022-11-27T06:46:20.253Z,4.45
2022-11-27T06:48:49.292Z,5.88
2022-11-27T06:51:19.073Z,6.63
2022-11-27T06:53:45.939Z,4.95
2022-11-27T06:56:15.572Z,5.95
2022-11-27T06:58:43.243Z,5.32
2022-11-27T07:01:14.059Z,3.85
2022-11-27T07:03:41.497Z,4.75
2022-11-27T07:06:11.773Z,5.60
2022-11-27T07:08:41.487Z,4.72
2022-11-27T07:11:12.222Z,5.35
2022-11-27T07:13:39.094Z,5.28
2022-11-27T07:16:09.012Z,4.40
2022-11-27T07:18:41.875Z,4.80
2022-11-27T07:21:09.771Z,4.78
2022-11-27T07:23:37.593Z,7.07
2022-11-27T07:26:13.231Z,7.15
2022-11-27T07:28:43.851Z,4.85
2022-11-27T07:31:13.604Z,4.35
2022-11-27T07:33:40.603Z,3.88
2022-11-27T07:36:22.331Z,6.28
2022-11-27T07:38:49.478Z,4.50
2022-11-27T07:41:17.135Z,4.80
2022-11-27T07:43:45.420Z,4.22
2022-11-27T07:46:18.404Z,4.22
2022-11-27T07:48:45.313Z,5.13
2022-11-27T07:51:14.800Z,3.80
2022-11-27T07:53:42.309Z,5.60
2022-11-27T07:56:11.839Z,6.25
2022-11-27T07:58:38.744Z,3.75
2022-11-27T08:01:11.338Z,4.35
2022-11-27T08:03:38.683Z,5.50
2022-11-27T08:06:13.132Z,4.38
2022-11-27T08:08:39.893Z,4.00
2022-11-27T08:11:06.729Z,5.57
2022-11-27T08:13:33.594Z,3.50
2022-11-27T08:16:00.483Z,5.05
2022-11-27T08:18:27.313Z,4.88
2022-11-27T08:20:54.255Z,4.32
2022-11-27T08:23:21.282Z,4.82
2022-11-27T08:25:48.790Z,6.60
2022-11-27T08:28:15.601Z,3.20
2022-11-27T08:30:42.377Z,4.95
2022-11-27T08:33:10.563Z,4.65
2022-11-27T08:35:39.718Z,6.00
2022-11-27T08:38:06.690Z,4.75
2022-11-27T08:40:33.493Z,4.40
2022-11-27T08:43:00.316Z,4.80
2022-11-27T08:45:27.066Z,4.30
2022-11-27T08:47:53.841Z,4.57
2022-11-27T08:50:20.759Z,3.65
2022-11-27T08:52:47.576Z,4.45
2022-11-27T08:55:17.140Z,4.20
2022-11-27T08:57:43.881Z,3.53
2022-11-27T09:00:13.722Z,4.28
2022-11-27T09:02:41.562Z,3.90
2022-11-27T09:05:09.894Z,5.60
2022-11-27T09:07:36.799Z,3.47
2022-11-27T09:10:03.967Z,3.65
2022-11-27T09:12:30.842Z,3.75
2022-11-27T09:14:57.884Z,4.35
2022-11-27T09:17:24.860Z,6.05
2022-11-27T09:19:51.898Z,4.28
2022-11-27T09:22:19.226Z,4.88
2022-11-27T09:24:47.350Z,3.40
2022-11-27T09:27:15.326Z,5.15
2022-11-27T09:29:42.154Z,4.10
2022-11-27T09:32:09.047Z,4.13
2022-11-27T09:34:37.597Z,5.03
2022-11-27T09:37:05.352Z,3.83
2022-11-27T09:39:34.146Z,4.07
2022-11-27T09:42:06.459Z,3.92
2022-11-27T09:47:27.696Z,4.85
2022-11-27T09:50:01.982Z,5.28
2022-11-27T09:52:40.535Z,4.95
2022-11-27T09:55:34.038Z,3.83
2022-11-27T09:58:26.839Z,4.18
2022-11-27T10:00:53.690Z,3.23
2022-11-27T10:03:25.933Z,3.53
2022-11-27T10:08:39.769Z,4.40
2022-11-27T10:11:21.138Z,4.78
2022-11-27T10:14:25.380Z,3.92
2022-11-27T10:17:09.918Z,4.65
2022-11-27T10:19:43.955Z,4.03
2022-11-27T10:22:24.042Z,4.18
2022-11-27T10:25:14.640Z,3.08
2022-11-27T10:28:03.860Z,3.30
2022-11-27T10:30:33.193Z,3.38
2022-11-27T10:33:02.386Z,4.40
2022-11-27T10:35:32.431Z,4.03
2022-11-27T10:38:17.299Z,3.30
2022-11-27T10:40:54.690Z,2.60
2022-11-27T10:43:25.468Z,3.10
2022-11-27T10:46:11.198Z,2.63
2022-11-27T10:48:38.158Z,3.53
2022-11-27T10:51:17.619Z,2.60
2022-11-27T10:53:48.689Z,2.95
2022-11-27T10:56:34.102Z,2.33
2022-11-27T10:59:05.348Z,3.33
2022-11-27T11:01:45.038Z,2.60
2022-11-27T11:04:36.845Z,2.42
2022-11-27T11:07:02.904Z,2.42
2022-11-27T11:09:32.935Z,3.60
2022-11-27T11:12:18.958Z,3.78
2022-11-27T11:15:00.143Z,3.08
2022-11-27T11:17:30.677Z,5.13
2022-11-27T11:22:28.549Z,2.40
2022-11-27T11:24:55.493Z,2.85
2022-11-27T11:27:31.149Z,3.20
2022-11-27T11:30:04.812Z,2.30
2022-11-27T11:32:35.175Z,5.68
2022-11-27T11:35:25.961Z,4.38
2022-11-27T11:37:53.985Z,2.88
2022-11-27T11:40:31.164Z,2.63
2022-11-27T11:43:00.574Z,4.72
2022-11-27T11:45:33.586Z,3.13
2022-11-27T11:48:03.533Z,3.05
2022-11-27T11:50:34.542Z,2.65
2022-11-27T11:53:12.446Z,2.50
2022-11-27T11:55:41.977Z,4.18
2022-11-27T11:58:22.082Z,3.65
2022-11-27T12:03:59.457Z,2.35
2022-11-27T12:06:42.792Z,3.40
2022-11-27T12:09:25.168Z,4.22
2022-11-27T12:11:58.036Z,2.92
2022-11-27T12:14:39.184Z,2.88
2022-11-27T12:17:18.350Z,3.88
2022-11-27T12:20:01.077Z,4.28
2022-11-27T12:22:44.717Z,4.45
2022-11-27T12:25:52.170Z,3.05
2022-11-27T12:28:54.559Z,2.22
2022-11-27T12:31:47.365Z,2.10
2022-11-27T12:34:26.345Z,1.70
2022-11-27T12:36:59.440Z,1.48
2022-11-27T12:39:32.151Z,1.30
2022-11-27T12:42:16.681Z,1.70
2022-11-27T13:17:03.721Z,1.30
2022-11-27T13:19:51.596Z,1.58
2022-11-27T13:22:38.647Z,1.13
2022-11-27T13:25:27.657Z,1.23
2022-11-27T13:28:45.802Z,1.42
2022-11-27T13:31:40.092Z,1.20
2022-11-27T13:34:29.823Z,1.10
2022-11-27T13:37:36.814Z,0.70
2022-11-27T13:40:31.223Z,0.70
2022-11-27T13:43:33.220Z,0.85
2022-11-27T13:46:26.657Z,1.00
2022-11-27T13:49:28.159Z,0.68
2022-11-27T13:52:16.731Z,1.25
2022-11-27T13:55:07.666Z,1.05
2022-11-27T13:57:34.588Z,0.90
2022-11-27T14:00:16.563Z,1.42
2022-11-27T14:02:51.058Z,1.55
2022-11-27T14:05:20.686Z,0.90
2022-11-27T14:07:55.122Z,1.30
2022-11-27T14:10:26.001Z,0.80
2022-11-27T14:12:58.207Z,1.02
2022-11-27T14:15:27.176Z,0.77
2022-11-27T14:18:10.230Z,1.27
2022-11-27T14:20:47.930Z,0.73
2022-11-27T14:23:26.005Z,0.70
2022-11-27T14:26:02.478Z,0.80
2022-11-27T14:28:30.857Z,0.70
2022-11-27T14:31:00.325Z,1.15
2022-11-27T14:33:33.278Z,1.20
2022-11-27T14:36:07.218Z,0.80
2022-11-27T14:38:35.443Z,1.15
2022-11-27T14:41:17.244Z,1.10
2022-11-27T14:43:44.019Z,1.10
2022-11-27T14:46:19.504Z,1.10
2022-11-27T14:48:57.249Z,1.13
2022-11-27T14:51:27.033Z,1.38
2022-11-27T14:54:07.509Z,2.40
2022-11-27T14:56:37.510Z,1.92
2022-11-27T14:59:04.742Z,1.70
2022-11-27T15:01:33.730Z,2.05
2022-11-27T15:04:06.041Z,1.95
2022-11-27T15:06:47.178Z,2.72
2022-11-27T15:09:35.361Z,1.73
2022-11-27T15:12:15.571Z,1.08
2022-11-27T15:14:57.051Z,2.65
2022-11-27T15:17:30.093Z,1.77
2022-11-27T15:19:58.138Z,1.90
2022-11-27T15:22:24.919Z,2.03
2022-11-27T15:25:06.324Z,2.10
2022-11-27T15:27:45.646Z,1.77
2022-11-27T15:30:18.932Z,2.45
2022-11-27T15:32:53.583Z,1.88
2022-11-27T15:35:36.295Z,1.73
2022-11-27T15:38:10.990Z,2.38
2022-11-27T15:40:40.089Z,3.22
2022-11-27T15:43:12.579Z,4.18
2022-11-27T15:45:40.222Z,5.35
2022-11-27T15:48:19.374Z,4.18
2022-11-27T15:50:51.488Z,2.00
2022-11-27T15:53:18.606Z,3.00
2022-11-27T15:55:45.599Z,1.95
2022-11-27T15:58:12.238Z,1.33
2022-11-27T16:00:39.890Z,1.55
2022-11-27T16:03:06.583Z,3.70
2022-11-27T16:05:33.252Z,1.85
2022-11-27T16:07:59.972Z,1.95
2022-11-27T16:10:26.599Z,1.60
2022-11-27T16:12:55.590Z,1.50
2022-11-27T16:15:23.495Z,1.73
2022-11-27T16:17:50.779Z,1.67
2022-11-27T16:20:17.851Z,1.77
2022-11-27T16:22:45.569Z,5.72
2022-11-27T16:25:12.319Z,4.05
2022-11-27T16:27:39.035Z,2.55
2022-11-27T16:30:06.807Z,2.33
2022-11-27T16:32:37.466Z,2.50
2022-11-27T16:35:07.568Z,3.67
2022-11-27T16:37:34.187Z,2.17
2022-11-27T16:40:01.803Z,3.47
2022-11-27T16:42:28.850Z,3.75
2022-11-27T16:44:55.442Z,3.10
2022-11-27T16:47:22.119Z,2.53
2022-11-27T16:49:49.607Z,3.30
2022-11-27T16:52:17.112Z,3.53
2022-11-27T16:54:44.160Z,3.90
2022-11-27T16:57:10.809Z,3.70
2022-11-27T16:59:38.436Z,3.35
2022-11-27T17:02:05.938Z,3.05
2022-11-27T17:04:33.569Z,3.20
2022-11-27T17:07:00.683Z,3.95
2022-11-27T17:09:29.430Z,3.10
2022-11-27T17:11:56.140Z,3.63
2022-11-27T17:14:22.787Z,3.38
2022-11-27T17:16:49.583Z,3.28
2022-11-27T17:19:17.175Z,2.92
2022-11-27T17:21:44.297Z,2.50
2022-11-27T17:24:15.300Z,3.40
2022-11-27T17:26:43.549Z,2.57
2022-11-27T17:29:18.210Z,3.08
2022-11-27T17:31:45.200Z,3.67
2022-11-27T17:34:13.649Z,3.47
2022-11-27T17:36:43.006Z,3.70
2022-11-27T17:39:10.996Z,3.60
2022-11-27T17:41:40.112Z,2.92
2022-11-27T17:44:07.402Z,4.00
2022-11-27T17:46:34.716Z,4.82
2022-11-27T17:49:02.872Z,3.90
2022-11-27T17:51:31.625Z,3.40
2022-11-27T17:54:02.534Z,5.32
2022-11-27T17:56:30.070Z,3.35
2022-11-27T17:58:56.844Z,3.40
2022-11-27T18:01:26.601Z,4.93
2022-11-27T18:03:59.859Z,5.05
2022-11-27T18:06:27.185Z,3.45
2022-11-27T18:08:56.081Z,2.90
2022-11-27T18:11:24.643Z,3.22
2022-11-27T18:13:51.456Z,3.05
2022-11-27T18:16:22.092Z,2.80
2022-11-27T18:18:49.710Z,3.60
2022-11-27T18:21:21.044Z,4.53
2022-11-27T18:24:21.204Z,4.03
2022-11-27T18:27:06.642Z,3.55
2022-11-27T18:29:23.430Z,4.22
2022-11-27T18:31:51.147Z,3.40
2022-11-27T18:34:18.045Z,3.03
2022-11-27T18:36:46.111Z,3.35
2022-11-27T18:39:13.131Z,3.72
2022-11-27T18:41:39.929Z,4.55
2022-11-27T18:44:06.758Z,4.55
2022-11-27T18:46:33.784Z,5.65
2022-11-27T18:49:00.426Z,6.95
2022-11-27T18:51:27.191Z,5.68
2022-11-27T18:53:54.658Z,3.72
2022-11-27T18:56:27.693Z,5.82
2022-11-27T18:58:54.977Z,4.55
2022-11-27T19:01:27.289Z,4.82
2022-11-27T19:03:54.491Z,2.85
2022-11-27T19:06:23.662Z,4.22
2022-11-27T19:08:50.491Z,2.92
2022-11-27T19:11:20.347Z,1.13
2022-11-27T19:13:48.216Z,2.17
2022-11-27T19:16:17.959Z,0.95
2022-11-27T19:18:44.782Z,1.25
2022-11-27T19:21:20.069Z,1.30
2022-11-27T19:23:47.806Z,1.35
2022-11-27T19:26:17.795Z,0.75
2022-11-27T19:28:45.706Z,0.77
2022-11-27T19:31:13.706Z,0.77
2022-11-27T19:33:40.814Z,1.10
2022-11-27T19:36:10.609Z,1.08
2022-11-27T19:38:40.280Z,1.10
2022-11-27T19:41:12.107Z,2.45
2022-11-27T19:43:38.767Z,2.30
2022-11-27T19:46:23.919Z,2.85
2022-11-27T19:48:54.039Z,3.35
2022-11-27T19:51:20.727Z,3.42
2022-11-27T19:53:47.659Z,4.22
2022-11-27T19:56:14.352Z,4.22
2022-11-27T19:58:41.306Z,5.38
2022-11-27T20:01:16.796Z,7.72
2022-11-27T20:03:44.238Z,5.30
2022-11-27T20:06:16.389Z,4.65
2022-11-27T20:08:45.785Z,3.83
2022-11-27T20:11:15.451Z,3.53
2022-11-27T20:13:42.497Z,4.95
2022-11-27T20:16:14.964Z,4.40
2022-11-27T20:18:42.029Z,8.13
2022-11-27T20:21:14.812Z,8.07
2022-11-27T20:23:42.801Z,8.55
2022-11-27T20:26:12.492Z,7.50
2022-11-27T20:28:41.301Z,7.00
2022-11-27T20:31:14.206Z,4.53
2022-11-27T20:33:41.023Z,2.70
2022-11-27T20:36:19.070Z,4.47
2022-11-27T20:38:46.825Z,3.70
2022-11-27T20:41:16.140Z,4.05
2022-11-27T20:43:44.416Z,4.47
2022-11-27T20:46:16.140Z,4.00
2022-11-27T20:48:46.624Z,3.20
2022-11-27T20:51:16.453Z,3.20
2022-11-27T20:53:44.842Z,4.07
2022-11-27T20:56:13.075Z,3.15
2022-11-27T20:58:41.801Z,3.00
2022-11-27T21:01:18.416Z,2.90
2022-11-27T21:03:47.220Z,3.83
2022-11-27T21:06:15.004Z,3.15
2022-11-27T21:08:42.039Z,3.10
2022-11-27T21:11:30.126Z,3.50
2022-11-27T21:14:00.082Z,4.30
2022-11-27T21:16:30.535Z,3.72
2022-11-27T21:18:59.866Z,3.97
2022-11-27T21:21:28.491Z,3.75
2022-11-27T21:23:55.681Z,4.32
2022-11-27T21:26:23.298Z,4.00
2022-11-27T21:28:50.382Z,3.90
2022-11-27T21:31:19.705Z,9.23
2022-11-27T21:33:48.755Z,3.72
2022-11-27T21:36:16.405Z,4.00
2022-11-27T21:38:43.727Z,3.38
2022-11-27T21:41:13.776Z,3.70
2022-11-27T21:43:41.477Z,4.20
2022-11-27T21:46:09.966Z,2.53
2022-11-27T21:48:36.685Z,3.40
2022-11-27T21:51:04.526Z,3.00
2022-11-27T21:53:32.307Z,4.03
2022-11-27T21:55:59.381Z,2.75
2022-11-27T21:58:26.047Z,2.53
2022-11-27T22:00:52.770Z,3.38
2022-11-27T22:03:19.435Z,3.90
2022-11-27T22:05:46.042Z,4.50
2022-11-27T22:08:12.719Z,2.85
2022-11-27T22:10:40.705Z,3.45
2022-11-27T22:13:07.349Z,3.33
2022-11-27T22:15:36.190Z,3.92
2022-11-27T22:18:02.888Z,2.88
2022-11-27T22:20:29.548Z,2.70
2022-11-27T22:22:57.121Z,2.13
2022-11-27T22:25:23.819Z,2.97
2022-11-27T22:27:50.400Z,3.53
2022-11-27T22:30:17.377Z,3.70
2022-11-27T22:32:44.057Z,3.22
2022-11-27T22:35:12.736Z,3.35
2022-11-27T22:37:39.317Z,3.85
2022-11-27T22:40:06.837Z,3.20
2022-11-27T22:42:33.499Z,3.17
2022-11-27T22:45:00.112Z,2.42
2022-11-27T22:47:26.724Z,2.85
2022-11-27T22:49:53.325Z,4.57
2022-11-27T22:52:19.948Z,3.45
2022-11-27T22:54:46.527Z,2.75
2022-11-27T22:57:14.570Z,2.63
2022-11-27T22:59:41.440Z,2.92
2022-11-27T23:02:08.262Z,3.22
2022-11-27T23:04:35.946Z,2.80
2022-11-27T23:07:02.803Z,3.05
2022-11-27T23:09:29.744Z,2.60
2022-11-27T23:11:57.338Z,3.70
2022-11-27T23:14:25.502Z,4.00
2022-11-27T23:16:52.253Z,3.67
2022-11-27T23:19:18.896Z,2.78
2022-11-27T23:21:45.652Z,3.60
2022-11-27T23:24:15.272Z,2.58
2022-11-27T23:26:42.865Z,2.38
2022-11-27T23:29:09.555Z,3.55
2022-11-27T23:31:38.212Z,4.28
2022-11-27T23:34:08.048Z,2.40
2022-11-27T23:36:35.514Z,3.97
2022-11-27T23:39:05.025Z,2.50
2022-11-27T23:41:36.259Z,2.35
2022-11-27T23:44:02.857Z,2.33
2022-11-27T23:46:30.343Z,2.78
2022-11-27T23:48:59.547Z,2.50
2022-11-27T23:51:30.541Z,2.83
2022-11-27T23:53:57.718Z,2.00
2022-11-27T23:56:27.539Z,2.38
2022-11-27T23:58:55.854Z,2.60
